sensor_id;sensor_type;location;lat;lon;timestamp;temperature;humidity
20963;DHT22;10640;50.140;8.138;2022-08-19T00:00:51;20.10;99.90
20963;DHT22;10640;50.140;8.138;2022-08-19T00:03:18;20.10;99.90
20963;DHT22;10640;50.140;8.138;2022-08-19T00:05:45;20.00;99.90
20963;DHT22;10640;50.140;8.138;2022-08-19T00:08:12;20.00;99.90
20963;DHT22;10640;50.140;8.138;2022-08-19T00:10:40;20.00;99.90
20963;DHT22;10640;50.140;8.138;2022-08-19T00:13:07;20.00;99.90
20963;DHT22;10640;50.140;8.138;2022-08-19T00:15:34;20.00;99.90
20963;DHT22;10640;50.140;8.138;2022-08-19T00:18:02;20.00;99.90
20963;DHT22;10640;50.140;8.138;2022-08-19T00:20:29;20.00;99.90
20963;DHT22;10640;50.140;8.138;2022-08-19T00:22:56;19.90;99.90
20963;DHT22;10640;50.140;8.138;2022-08-19T00:25:23;19.90;99.90
20963;DHT22;10640;50.140;8.138;2022-08-19T00:27:51;20.00;99.90
20963;DHT22;10640;50.140;8.138;2022-08-19T00:30:18;20.00;99.90
20963;DHT22;10640;50.140;8.138;2022-08-19T00:32:45;20.00;99.90
20963;DHT22;10640;50.140;8.138;2022-08-19T00:35:12;19.90;99.90
20963;DHT22;10640;50.140;8.138;2022-08-19T00:37:39;20.00;99.90
20963;DHT22;10640;50.140;8.138;2022-08-19T00:40:11;19.90;99.90
20963;DHT22;10640;50.140;8.138;2022-08-19T00:42:38;19.90;99.90
20963;DHT22;10640;50.140;8.138;2022-08-19T00:45:11;19.90;99.90
20963;DHT22;10640;50.140;8.138;2022-08-19T00:47:38;19.90;99.90
20963;DHT22;10640;50.140;8.138;2022-08-19T00:50:08;20.00;99.90
20963;DHT22;10640;50.140;8.138;2022-08-19T00:52:38;20.00;99.90
20963;DHT22;10640;50.140;8.138;2022-08-19T00:55:08;19.90;99.90
20963;DHT22;10640;50.140;8.138;2022-08-19T00:57:40;19.90;99.90
20963;DHT22;10640;50.140;8.138;2022-08-19T01:00:13;19.80;99.90
20963;DHT22;10640;50.140;8.138;2022-08-19T01:02:42;19.80;99.90
20963;DHT22;10640;50.140;8.138;2022-08-19T01:05:11;19.80;99.90
20963;DHT22;10640;50.140;8.138;2022-08-19T01:07:39;19.70;99.90
20963;DHT22;10640;50.140;8.138;2022-08-19T01:10:09;19.70;99.90
20963;DHT22;10640;50.140;8.138;2022-08-19T01:12:37;19.70;99.90
20963;DHT22;10640;50.140;8.138;2022-08-19T01:15:06;19.70;99.90
20963;DHT22;10640;50.140;8.138;2022-08-19T01:17:38;19.70;99.90
20963;DHT22;10640;50.140;8.138;2022-08-19T01:20:07;19.60;99.90
20963;DHT22;10640;50.140;8.138;2022-08-19T01:22:43;19.60;99.90
20963;DHT22;10640;50.140;8.138;2022-08-19T01:25:12;19.50;99.90
20963;DHT22;10640;50.140;8.138;2022-08-19T01:27:41;19.60;99.90
20963;DHT22;10640;50.140;8.138;2022-08-19T01:30:12;19.60;99.90
20963;DHT22;10640;50.140;8.138;2022-08-19T01:32:39;19.50;99.90
20963;DHT22;10640;50.140;8.138;2022-08-19T01:35:06;19.60;99.90
20963;DHT22;10640;50.140;8.138;2022-08-19T01:37:47;19.50;99.90
20963;DHT22;10640;50.140;8.138;2022-08-19T01:40:15;19.40;99.90
20963;DHT22;10640;50.140;8.138;2022-08-19T01:42:42;19.40;99.90
20963;DHT22;10640;50.140;8.138;2022-08-19T01:45:09;19.30;99.90
20963;DHT22;10640;50.140;8.138;2022-08-19T01:47:37;19.20;99.90
20963;DHT22;10640;50.140;8.138;2022-08-19T01:50:07;19.20;99.90
20963;DHT22;10640;50.140;8.138;2022-08-19T01:52:35;19.20;99.90
20963;DHT22;10640;50.140;8.138;2022-08-19T01:55:04;19.30;99.90
20963;DHT22;10640;50.140;8.138;2022-08-19T01:57:31;19.30;99.90
20963;DHT22;10640;50.140;8.138;2022-08-19T01:59:59;19.30;99.90
20963;DHT22;10640;50.140;8.138;2022-08-19T02:02:28;19.20;99.90
20963;DHT22;10640;50.140;8.138;2022-08-19T02:04:55;19.10;99.90
20963;DHT22;10640;50.140;8.138;2022-08-19T02:07:22;19.10;99.90
20963;DHT22;10640;50.140;8.138;2022-08-19T02:09:49;19.20;99.90
20963;DHT22;10640;50.140;8.138;2022-08-19T02:12:17;19.20;99.90
20963;DHT22;10640;50.140;8.138;2022-08-19T02:14:46;19.10;99.90
20963;DHT22;10640;50.140;8.138;2022-08-19T02:17:13;19.10;99.90
20963;DHT22;10640;50.140;8.138;2022-08-19T02:19:40;19.10;99.90
20963;DHT22;10640;50.140;8.138;2022-08-19T02:22:07;19.10;99.90
20963;DHT22;10640;50.140;8.138;2022-08-19T02:24:33;19.10;99.90
20963;DHT22;10640;50.140;8.138;2022-08-19T02:27:00;19.10;99.90
20963;DHT22;10640;50.140;8.138;2022-08-19T02:29:29;19.10;99.90
20963;DHT22;10640;50.140;8.138;2022-08-19T02:31:56;19.10;99.90
20963;DHT22;10640;50.140;8.138;2022-08-19T02:34:23;19.20;99.90
20963;DHT22;10640;50.140;8.138;2022-08-19T02:36:50;19.10;99.90
20963;DHT22;10640;50.140;8.138;2022-08-19T02:39:17;19.10;99.90
20963;DHT22;10640;50.140;8.138;2022-08-19T02:41:43;19.10;99.90
20963;DHT22;10640;50.140;8.138;2022-08-19T02:44:11;19.10;99.90
20963;DHT22;10640;50.140;8.138;2022-08-19T02:46:39;19.10;99.90
20963;DHT22;10640;50.140;8.138;2022-08-19T02:49:07;19.10;99.90
20963;DHT22;10640;50.140;8.138;2022-08-19T02:51:36;19.10;99.90
20963;DHT22;10640;50.140;8.138;2022-08-19T02:54:04;19.10;99.90
20963;DHT22;10640;50.140;8.138;2022-08-19T02:56:33;19.10;99.90
20963;DHT22;10640;50.140;8.138;2022-08-19T02:59:00;19.10;99.90
20963;DHT22;10640;50.140;8.138;2022-08-19T03:01:30;19.10;99.90
20963;DHT22;10640;50.140;8.138;2022-08-19T03:04:00;19.10;99.90
20963;DHT22;10640;50.140;8.138;2022-08-19T03:06:27;19.00;99.90
20963;DHT22;10640;50.140;8.138;2022-08-19T03:08:55;19.00;99.90
20963;DHT22;10640;50.140;8.138;2022-08-19T03:11:24;19.10;99.90
20963;DHT22;10640;50.140;8.138;2022-08-19T03:13:52;19.10;99.90
20963;DHT22;10640;50.140;8.138;2022-08-19T03:16:21;19.00;99.90
20963;DHT22;10640;50.140;8.138;2022-08-19T03:18:48;18.90;99.90
20963;DHT22;10640;50.140;8.138;2022-08-19T03:21:19;18.90;99.90
20963;DHT22;10640;50.140;8.138;2022-08-19T03:23:47;18.70;99.90
20963;DHT22;10640;50.140;8.138;2022-08-19T03:26:14;18.60;99.90
20963;DHT22;10640;50.140;8.138;2022-08-19T03:28:41;18.50;99.90
20963;DHT22;10640;50.140;8.138;2022-08-19T03:31:12;18.40;99.90
20963;DHT22;10640;50.140;8.138;2022-08-19T03:33:39;18.30;99.90
20963;DHT22;10640;50.140;8.138;2022-08-19T03:36:09;18.40;99.90
20963;DHT22;10640;50.140;8.138;2022-08-19T03:38:40;18.50;99.90
20963;DHT22;10640;50.140;8.138;2022-08-19T03:41:10;18.40;99.90
20963;DHT22;10640;50.140;8.138;2022-08-19T03:43:39;18.40;99.90
20963;DHT22;10640;50.140;8.138;2022-08-19T03:46:09;18.40;99.90
20963;DHT22;10640;50.140;8.138;2022-08-19T03:48:38;18.20;99.90
20963;DHT22;10640;50.140;8.138;2022-08-19T03:51:06;18.10;99.90
20963;DHT22;10640;50.140;8.138;2022-08-19T03:53:34;18.10;99.90
20963;DHT22;10640;50.140;8.138;2022-08-19T03:56:03;18.00;99.90
20963;DHT22;10640;50.140;8.138;2022-08-19T03:58:30;18.00;99.90
20963;DHT22;10640;50.140;8.138;2022-08-19T04:00:57;18.10;99.90
20963;DHT22;10640;50.140;8.138;2022-08-19T04:03:24;18.10;99.90
20963;DHT22;10640;50.140;8.138;2022-08-19T04:05:52;18.00;99.90
20963;DHT22;10640;50.140;8.138;2022-08-19T04:08:19;18.00;99.90
20963;DHT22;10640;50.140;8.138;2022-08-19T04:10:48;17.90;99.90
20963;DHT22;10640;50.140;8.138;2022-08-19T04:13:17;18.00;99.90
20963;DHT22;10640;50.140;8.138;2022-08-19T04:15:45;17.90;99.90
20963;DHT22;10640;50.140;8.138;2022-08-19T04:18:13;17.80;99.90
20963;DHT22;10640;50.140;8.138;2022-08-19T04:20:42;17.80;99.90
20963;DHT22;10640;50.140;8.138;2022-08-19T04:23:10;17.90;99.90
20963;DHT22;10640;50.140;8.138;2022-08-19T04:25:38;18.00;99.90
20963;DHT22;10640;50.140;8.138;2022-08-19T04:28:05;17.90;99.90
20963;DHT22;10640;50.140;8.138;2022-08-19T04:30:40;17.90;99.90
20963;DHT22;10640;50.140;8.138;2022-08-19T04:33:07;18.10;99.90
20963;DHT22;10640;50.140;8.138;2022-08-19T04:35:36;18.10;99.90
20963;DHT22;10640;50.140;8.138;2022-08-19T04:38:04;18.10;99.90
20963;DHT22;10640;50.140;8.138;2022-08-19T04:40:31;18.10;99.90
20963;DHT22;10640;50.140;8.138;2022-08-19T04:43:15;17.90;99.90
20963;DHT22;10640;50.140;8.138;2022-08-19T04:45:44;17.80;99.90
20963;DHT22;10640;50.140;8.138;2022-08-19T04:48:11;17.90;99.90
20963;DHT22;10640;50.140;8.138;2022-08-19T04:50:41;18.00;99.90
20963;DHT22;10640;50.140;8.138;2022-08-19T04:53:08;18.10;99.90
20963;DHT22;10640;50.140;8.138;2022-08-19T04:55:38;18.10;99.90
20963;DHT22;10640;50.140;8.138;2022-08-19T04:58:05;18.10;99.90
20963;DHT22;10640;50.140;8.138;2022-08-19T05:00:32;18.20;99.90
20963;DHT22;10640;50.140;8.138;2022-08-19T05:03:01;18.20;99.90
20963;DHT22;10640;50.140;8.138;2022-08-19T05:05:27;18.00;99.90
20963;DHT22;10640;50.140;8.138;2022-08-19T05:07:56;18.00;99.90
20963;DHT22;10640;50.140;8.138;2022-08-19T05:10:23;17.90;99.90
20963;DHT22;10640;50.140;8.138;2022-08-19T05:12:50;18.00;99.90
20963;DHT22;10640;50.140;8.138;2022-08-19T05:15:17;18.10;99.90
20963;DHT22;10640;50.140;8.138;2022-08-19T05:17:44;18.40;99.90
20963;DHT22;10640;50.140;8.138;2022-08-19T05:20:33;18.40;99.90
20963;DHT22;10640;50.140;8.138;2022-08-19T05:23:17;18.50;99.90
20963;DHT22;10640;50.140;8.138;2022-08-19T05:25:45;18.70;99.90
20963;DHT22;10640;50.140;8.138;2022-08-19T05:28:12;18.40;99.90
20963;DHT22;10640;50.140;8.138;2022-08-19T05:59:04;19.60;99.90
20963;DHT22;10640;50.140;8.138;2022-08-19T06:01:35;19.80;99.90
20963;DHT22;10640;50.140;8.138;2022-08-19T06:04:03;19.80;99.90
20963;DHT22;10640;50.140;8.138;2022-08-19T06:06:32;20.00;99.90
20963;DHT22;10640;50.140;8.138;2022-08-19T06:09:02;20.10;99.90
20963;DHT22;10640;50.140;8.138;2022-08-19T06:11:36;20.10;99.90
20963;DHT22;10640;50.140;8.138;2022-08-19T06:14:07;20.40;99.90
20963;DHT22;10640;50.140;8.138;2022-08-19T06:16:35;20.50;99.90
20963;DHT22;10640;50.140;8.138;2022-08-19T06:19:09;20.40;99.90
20963;DHT22;10640;50.140;8.138;2022-08-19T06:21:40;20.70;99.90
20963;DHT22;10640;50.140;8.138;2022-08-19T06:24:12;20.70;99.90
20963;DHT22;10640;50.140;8.138;2022-08-19T06:26:44;20.90;99.90
20963;DHT22;10640;50.140;8.138;2022-08-19T06:29:15;20.90;99.90
20963;DHT22;10640;50.140;8.138;2022-08-19T06:31:44;20.60;99.90
20963;DHT22;10640;50.140;8.138;2022-08-19T06:34:12;20.90;99.90
20963;DHT22;10640;50.140;8.138;2022-08-19T06:36:42;21.10;99.90
20963;DHT22;10640;50.140;8.138;2022-08-19T06:39:11;21.20;99.90
20963;DHT22;10640;50.140;8.138;2022-08-19T06:41:42;21.10;99.90
20963;DHT22;10640;50.140;8.138;2022-08-19T06:44:09;21.70;99.90
20963;DHT22;10640;50.140;8.138;2022-08-19T06:46:39;21.90;99.90
20963;DHT22;10640;50.140;8.138;2022-08-19T06:49:07;21.70;99.90
20963;DHT22;10640;50.140;8.138;2022-08-19T06:51:35;22.20;99.90
20963;DHT22;10640;50.140;8.138;2022-08-19T06:54:03;22.70;99.90
20963;DHT22;10640;50.140;8.138;2022-08-19T06:56:31;22.60;99.90
20963;DHT22;10640;50.140;8.138;2022-08-19T06:59:00;22.30;99.90
20963;DHT22;10640;50.140;8.138;2022-08-19T07:01:31;22.30;99.90
20963;DHT22;10640;50.140;8.138;2022-08-19T07:07:51;23.00;99.90
20963;DHT22;10640;50.140;8.138;2022-08-19T07:17:22;23.40;99.90
20963;DHT22;10640;50.140;8.138;2022-08-19T07:19:48;23.50;99.90
20963;DHT22;10640;50.140;8.138;2022-08-19T07:22:16;23.80;99.90
20963;DHT22;10640;50.140;8.138;2022-08-19T07:24:44;24.00;99.90
20963;DHT22;10640;50.140;8.138;2022-08-19T07:27:14;23.30;99.90
20963;DHT22;10640;50.140;8.138;2022-08-19T07:29:41;23.40;99.90
20963;DHT22;10640;50.140;8.138;2022-08-19T07:32:12;23.90;99.90
20963;DHT22;10640;50.140;8.138;2022-08-19T07:34:42;24.10;99.90
20963;DHT22;10640;50.140;8.138;2022-08-19T07:37:09;24.20;99.90
20963;DHT22;10640;50.140;8.138;2022-08-19T07:39:37;24.40;99.90
20963;DHT22;10640;50.140;8.138;2022-08-19T07:42:10;24.30;99.90
20963;DHT22;10640;50.140;8.138;2022-08-19T07:44:40;23.90;99.90
20963;DHT22;10640;50.140;8.138;2022-08-19T07:47:07;24.10;99.90
20963;DHT22;10640;50.140;8.138;2022-08-19T07:49:37;24.10;99.90
20963;DHT22;10640;50.140;8.138;2022-08-19T07:52:07;23.90;99.90
20963;DHT22;10640;50.140;8.138;2022-08-19T07:54:37;23.90;99.90
20963;DHT22;10640;50.140;8.138;2022-08-19T07:57:06;23.00;99.90
20963;DHT22;10640;50.140;8.138;2022-08-19T08:07:13;22.90;99.90
20963;DHT22;10640;50.140;8.138;2022-08-19T08:09:58;23.10;99.90
20963;DHT22;10640;50.140;8.138;2022-08-19T08:17:50;24.60;99.90
20963;DHT22;10640;50.140;8.138;2022-08-19T08:20:19;24.80;99.90
20963;DHT22;10640;50.140;8.138;2022-08-19T08:22:47;24.30;99.90
20963;DHT22;10640;50.140;8.138;2022-08-19T08:25:35;24.70;99.90
20963;DHT22;10640;50.140;8.138;2022-08-19T08:28:45;24.70;99.90
20963;DHT22;10640;50.140;8.138;2022-08-19T08:31:14;25.20;1.00
20963;DHT22;10640;50.140;8.138;2022-08-19T08:33:43;25.60;99.90
20963;DHT22;10640;50.140;8.138;2022-08-19T08:36:11;26.40;1.00
20963;DHT22;10640;50.140;8.138;2022-08-19T08:38:40;26.40;99.90
20963;DHT22;10640;50.140;8.138;2022-08-19T08:41:14;26.20;1.00
20963;DHT22;10640;50.140;8.138;2022-08-19T08:43:47;26.50;23.90
20963;DHT22;10640;50.140;8.138;2022-08-19T08:46:18;26.20;75.10
20963;DHT22;10640;50.140;8.138;2022-08-19T08:48:52;24.90;1.00
20963;DHT22;10640;50.140;8.138;2022-08-19T08:51:25;25.00;1.00
20963;DHT22;10640;50.140;8.138;2022-08-19T08:53:56;25.00;1.00
20963;DHT22;10640;50.140;8.138;2022-08-19T08:56:38;25.60;1.00
20963;DHT22;10640;50.140;8.138;2022-08-19T08:59:07;25.00;99.90
20963;DHT22;10640;50.140;8.138;2022-08-19T09:01:37;25.10;1.00
20963;DHT22;10640;50.140;8.138;2022-08-19T09:04:07;25.20;1.00
20963;DHT22;10640;50.140;8.138;2022-08-19T09:06:40;24.90;1.00
20963;DHT22;10640;50.140;8.138;2022-08-19T09:09:14;24.70;99.90
20963;DHT22;10640;50.140;8.138;2022-08-19T09:11:54;24.50;99.90
20963;DHT22;10640;50.140;8.138;2022-08-19T09:14:36;25.50;22.50
20963;DHT22;10640;50.140;8.138;2022-08-19T09:17:07;25.30;1.00
20963;DHT22;10640;50.140;8.138;2022-08-19T09:19:48;25.00;99.90
20963;DHT22;10640;50.140;8.138;2022-08-19T09:22:15;25.70;99.90
20963;DHT22;10640;50.140;8.138;2022-08-19T09:24:42;25.70;1.00
20963;DHT22;10640;50.140;8.138;2022-08-19T09:27:09;25.80;99.90
20963;DHT22;10640;50.140;8.138;2022-08-19T09:29:36;26.20;1.00
20963;DHT22;10640;50.140;8.138;2022-08-19T09:32:04;26.60;1.00
20963;DHT22;10640;50.140;8.138;2022-08-19T09:34:31;26.50;99.90
20963;DHT22;10640;50.140;8.138;2022-08-19T09:37:00;26.40;1.00
20963;DHT22;10640;50.140;8.138;2022-08-19T09:39:28;27.00;1.00
20963;DHT22;10640;50.140;8.138;2022-08-19T09:41:56;27.40;99.90
20963;DHT22;10640;50.140;8.138;2022-08-19T09:44:23;27.20;99.90
20963;DHT22;10640;50.140;8.138;2022-08-19T09:46:50;27.40;1.00
20963;DHT22;10640;50.140;8.138;2022-08-19T09:49:18;27.50;1.00
20963;DHT22;10640;50.140;8.138;2022-08-19T09:51:50;27.90;1.00
20963;DHT22;10640;50.140;8.138;2022-08-19T09:54:18;28.60;1.00
20963;DHT22;10640;50.140;8.138;2022-08-19T09:56:45;28.60;1.00
20963;DHT22;10640;50.140;8.138;2022-08-19T09:59:12;28.70;1.00
20963;DHT22;10640;50.140;8.138;2022-08-19T10:01:39;28.50;1.00
20963;DHT22;10640;50.140;8.138;2022-08-19T10:04:06;26.90;99.90
20963;DHT22;10640;50.140;8.138;2022-08-19T10:06:36;28.40;16.30
20963;DHT22;10640;50.140;8.138;2022-08-19T10:09:03;28.70;1.00
20963;DHT22;10640;50.140;8.138;2022-08-19T10:11:33;27.80;1.00
20963;DHT22;10640;50.140;8.138;2022-08-19T10:14:08;27.20;43.90
20963;DHT22;10640;50.140;8.138;2022-08-19T10:17:12;28.40;1.00
20963;DHT22;10640;50.140;8.138;2022-08-19T10:19:39;28.00;1.00
20963;DHT22;10640;50.140;8.138;2022-08-19T10:22:06;28.70;1.00
20963;DHT22;10640;50.140;8.138;2022-08-19T10:24:34;28.60;1.00
20963;DHT22;10640;50.140;8.138;2022-08-19T10:27:02;28.90;99.90
20963;DHT22;10640;50.140;8.138;2022-08-19T10:29:31;29.00;99.90
20963;DHT22;10640;50.140;8.138;2022-08-19T10:32:00;28.50;99.90
20963;DHT22;10640;50.140;8.138;2022-08-19T10:34:29;28.00;99.90
20963;DHT22;10640;50.140;8.138;2022-08-19T10:36:59;29.50;99.90
20963;DHT22;10640;50.140;8.138;2022-08-19T10:39:27;29.10;99.90
20963;DHT22;10640;50.140;8.138;2022-08-19T10:41:57;29.10;49.60
20963;DHT22;10640;50.140;8.138;2022-08-19T10:44:26;29.60;25.50
20963;DHT22;10640;50.140;8.138;2022-08-19T10:46:55;29.60;1.00
20963;DHT22;10640;50.140;8.138;2022-08-19T10:49:22;30.30;1.00
20963;DHT22;10640;50.140;8.138;2022-08-19T10:51:49;31.20;1.00
20963;DHT22;10640;50.140;8.138;2022-08-19T10:54:34;31.50;1.00
20963;DHT22;10640;50.140;8.138;2022-08-19T10:57:18;30.40;1.00
20963;DHT22;10640;50.140;8.138;2022-08-19T10:59:47;30.70;1.00
20963;DHT22;10640;50.140;8.138;2022-08-19T11:02:52;30.30;1.00
20963;DHT22;10640;50.140;8.138;2022-08-19T11:05:19;30.30;1.00
20963;DHT22;10640;50.140;8.138;2022-08-19T11:07:47;30.50;1.00
20963;DHT22;10640;50.140;8.138;2022-08-19T11:10:17;31.10;1.00
20963;DHT22;10640;50.140;8.138;2022-08-19T11:12:47;30.90;1.00
20963;DHT22;10640;50.140;8.138;2022-08-19T11:15:20;31.80;1.00
20963;DHT22;10640;50.140;8.138;2022-08-19T11:17:47;31.50;1.00
20963;DHT22;10640;50.140;8.138;2022-08-19T11:20:14;31.50;1.00
20963;DHT22;10640;50.140;8.138;2022-08-19T11:22:42;31.50;1.00
20963;DHT22;10640;50.140;8.138;2022-08-19T11:25:10;29.60;1.00
20963;DHT22;10640;50.140;8.138;2022-08-19T11:27:40;29.40;1.00
20963;DHT22;10640;50.140;8.138;2022-08-19T11:30:10;30.50;1.00
20963;DHT22;10640;50.140;8.138;2022-08-19T11:32:39;30.40;1.00
20963;DHT22;10640;50.140;8.138;2022-08-19T11:35:07;29.20;1.00
20963;DHT22;10640;50.140;8.138;2022-08-19T11:37:34;29.40;1.00
20963;DHT22;10640;50.140;8.138;2022-08-19T11:40:03;30.40;1.00
20963;DHT22;10640;50.140;8.138;2022-08-19T11:42:31;30.90;1.00
20963;DHT22;10640;50.140;8.138;2022-08-19T11:45:16;30.70;1.00
20963;DHT22;10640;50.140;8.138;2022-08-19T11:47:47;30.90;1.00
20963;DHT22;10640;50.140;8.138;2022-08-19T11:50:17;30.60;1.00
20963;DHT22;10640;50.140;8.138;2022-08-19T11:52:45;30.50;1.00
20963;DHT22;10640;50.140;8.138;2022-08-19T11:55:13;30.80;1.00
20963;DHT22;10640;50.140;8.138;2022-08-19T11:57:40;29.20;1.00
20963;DHT22;10640;50.140;8.138;2022-08-19T12:00:09;28.80;1.00
20963;DHT22;10640;50.140;8.138;2022-08-19T12:02:37;28.20;18.10
20963;DHT22;10640;50.140;8.138;2022-08-19T12:05:07;28.40;6.10
20963;DHT22;10640;50.140;8.138;2022-08-19T12:07:37;29.90;1.00
20963;DHT22;10640;50.140;8.138;2022-08-19T12:10:05;30.80;1.00
20963;DHT22;10640;50.140;8.138;2022-08-19T12:12:32;30.00;1.00
20963;DHT22;10640;50.140;8.138;2022-08-19T12:15:01;29.90;1.00
20963;DHT22;10640;50.140;8.138;2022-08-19T12:17:28;29.80;1.00
20963;DHT22;10640;50.140;8.138;2022-08-19T12:19:56;29.10;1.00
20963;DHT22;10640;50.140;8.138;2022-08-19T12:22:24;29.30;1.00
20963;DHT22;10640;50.140;8.138;2022-08-19T12:24:51;29.90;1.00
20963;DHT22;10640;50.140;8.138;2022-08-19T12:27:19;29.70;1.00
20963;DHT22;10640;50.140;8.138;2022-08-19T12:29:46;29.40;1.00
20963;DHT22;10640;50.140;8.138;2022-08-19T12:32:13;30.70;1.00
20963;DHT22;10640;50.140;8.138;2022-08-19T12:34:40;30.00;1.00
20963;DHT22;10640;50.140;8.138;2022-08-19T12:37:08;30.30;1.00
20963;DHT22;10640;50.140;8.138;2022-08-19T12:39:39;30.90;1.00
20963;DHT22;10640;50.140;8.138;2022-08-19T12:42:08;30.60;1.00
20963;DHT22;10640;50.140;8.138;2022-08-19T12:44:38;29.80;1.00
20963;DHT22;10640;50.140;8.138;2022-08-19T12:47:06;30.70;1.00
20963;DHT22;10640;50.140;8.138;2022-08-19T12:49:34;30.40;1.00
20963;DHT22;10640;50.140;8.138;2022-08-19T12:52:04;30.40;1.00
20963;DHT22;10640;50.140;8.138;2022-08-19T12:54:31;30.00;1.00
20963;DHT22;10640;50.140;8.138;2022-08-19T12:57:04;29.80;1.00
20963;DHT22;10640;50.140;8.138;2022-08-19T12:59:32;31.30;1.00
20963;DHT22;10640;50.140;8.138;2022-08-19T13:01:59;31.60;1.00
20963;DHT22;10640;50.140;8.138;2022-08-19T13:04:26;30.60;1.00
20963;DHT22;10640;50.140;8.138;2022-08-19T13:06:53;29.40;1.00
20963;DHT22;10640;50.140;8.138;2022-08-19T13:09:20;28.80;1.00
20963;DHT22;10640;50.140;8.138;2022-08-19T13:11:48;28.20;1.00
20963;DHT22;10640;50.140;8.138;2022-08-19T13:14:16;28.20;1.00
20963;DHT22;10640;50.140;8.138;2022-08-19T13:16:44;29.80;1.00
20963;DHT22;10640;50.140;8.138;2022-08-19T13:19:12;30.60;1.00
20963;DHT22;10640;50.140;8.138;2022-08-19T13:21:38;30.50;1.00
20963;DHT22;10640;50.140;8.138;2022-08-19T13:24:06;29.40;1.00
20963;DHT22;10640;50.140;8.138;2022-08-19T13:26:33;28.50;1.00
20963;DHT22;10640;50.140;8.138;2022-08-19T13:29:00;28.30;1.00
20963;DHT22;10640;50.140;8.138;2022-08-19T13:31:46;28.40;1.00
20963;DHT22;10640;50.140;8.138;2022-08-19T13:34:32;29.20;1.00
20963;DHT22;10640;50.140;8.138;2022-08-19T13:37:00;28.80;1.00
20963;DHT22;10640;50.140;8.138;2022-08-19T13:39:28;27.70;1.00
20963;DHT22;10640;50.140;8.138;2022-08-19T13:41:55;28.60;1.00
20963;DHT22;10640;50.140;8.138;2022-08-19T13:44:23;30.00;1.00
20963;DHT22;10640;50.140;8.138;2022-08-19T13:46:51;29.80;1.00
20963;DHT22;10640;50.140;8.138;2022-08-19T13:49:19;29.80;1.00
20963;DHT22;10640;50.140;8.138;2022-08-19T13:51:47;29.00;1.00
20963;DHT22;10640;50.140;8.138;2022-08-19T13:54:14;29.00;1.00
20963;DHT22;10640;50.140;8.138;2022-08-19T13:56:41;29.00;1.00
20963;DHT22;10640;50.140;8.138;2022-08-19T13:59:09;28.50;1.00
20963;DHT22;10640;50.140;8.138;2022-08-19T14:01:36;28.90;1.00
20963;DHT22;10640;50.140;8.138;2022-08-19T14:04:05;29.40;1.00
20963;DHT22;10640;50.140;8.138;2022-08-19T14:06:33;29.90;1.00
20963;DHT22;10640;50.140;8.138;2022-08-19T14:09:00;30.10;1.00
20963;DHT22;10640;50.140;8.138;2022-08-19T14:11:28;30.20;1.00
20963;DHT22;10640;50.140;8.138;2022-08-19T14:13:55;29.70;1.00
20963;DHT22;10640;50.140;8.138;2022-08-19T14:16:22;29.80;1.00
20963;DHT22;10640;50.140;8.138;2022-08-19T14:18:50;29.90;1.00
20963;DHT22;10640;50.140;8.138;2022-08-19T14:21:21;29.30;1.00
20963;DHT22;10640;50.140;8.138;2022-08-19T14:23:49;30.20;1.00
20963;DHT22;10640;50.140;8.138;2022-08-19T14:26:18;29.80;1.00
20963;DHT22;10640;50.140;8.138;2022-08-19T14:28:46;29.10;1.00
20963;DHT22;10640;50.140;8.138;2022-08-19T14:31:15;29.00;1.00
20963;DHT22;10640;50.140;8.138;2022-08-19T14:33:44;29.10;1.00
20963;DHT22;10640;50.140;8.138;2022-08-19T14:36:11;28.60;1.00
20963;DHT22;10640;50.140;8.138;2022-08-19T14:38:40;29.30;1.00
20963;DHT22;10640;50.140;8.138;2022-08-19T14:41:09;29.80;1.00
20963;DHT22;10640;50.140;8.138;2022-08-19T14:43:36;28.80;1.00
20963;DHT22;10640;50.140;8.138;2022-08-19T14:46:04;28.90;1.00
20963;DHT22;10640;50.140;8.138;2022-08-19T14:48:31;29.30;1.00
20963;DHT22;10640;50.140;8.138;2022-08-19T14:50:58;28.90;1.00
20963;DHT22;10640;50.140;8.138;2022-08-19T14:53:25;28.40;1.00
20963;DHT22;10640;50.140;8.138;2022-08-19T14:55:54;27.80;1.00
20963;DHT22;10640;50.140;8.138;2022-08-19T14:58:21;27.70;1.00
20963;DHT22;10640;50.140;8.138;2022-08-19T15:00:48;28.00;1.00
20963;DHT22;10640;50.140;8.138;2022-08-19T15:03:15;27.80;1.00
20963;DHT22;10640;50.140;8.138;2022-08-19T15:05:41;27.90;1.00
20963;DHT22;10640;50.140;8.138;2022-08-19T15:08:09;28.00;1.00
20963;DHT22;10640;50.140;8.138;2022-08-19T15:10:37;28.50;1.00
20963;DHT22;10640;50.140;8.138;2022-08-19T15:13:05;28.80;1.00
20963;DHT22;10640;50.140;8.138;2022-08-19T15:15:32;28.90;1.00
20963;DHT22;10640;50.140;8.138;2022-08-19T15:18:00;28.50;1.00
20963;DHT22;10640;50.140;8.138;2022-08-19T15:20:28;28.50;1.00
20963;DHT22;10640;50.140;8.138;2022-08-19T15:22:56;28.40;1.00
20963;DHT22;10640;50.140;8.138;2022-08-19T15:25:24;28.50;1.00
20963;DHT22;10640;50.140;8.138;2022-08-19T15:27:52;27.70;1.00
20963;DHT22;10640;50.140;8.138;2022-08-19T15:30:24;27.60;1.00
20963;DHT22;10640;50.140;8.138;2022-08-19T15:32:52;28.30;1.00
20963;DHT22;10640;50.140;8.138;2022-08-19T15:35:20;28.30;1.00
20963;DHT22;10640;50.140;8.138;2022-08-19T15:37:48;28.40;1.00
20963;DHT22;10640;50.140;8.138;2022-08-19T15:40:16;28.60;1.00
20963;DHT22;10640;50.140;8.138;2022-08-19T15:42:44;28.10;1.00
20963;DHT22;10640;50.140;8.138;2022-08-19T15:45:13;27.80;1.00
20963;DHT22;10640;50.140;8.138;2022-08-19T15:47:41;27.70;1.00
20963;DHT22;10640;50.140;8.138;2022-08-19T15:50:11;27.50;1.00
20963;DHT22;10640;50.140;8.138;2022-08-19T15:52:45;27.40;1.00
20963;DHT22;10640;50.140;8.138;2022-08-19T15:55:12;27.50;1.00
20963;DHT22;10640;50.140;8.138;2022-08-19T15:57:39;27.40;1.00
20963;DHT22;10640;50.140;8.138;2022-08-19T16:00:23;27.30;1.00
20963;DHT22;10640;50.140;8.138;2022-08-19T16:03:13;27.00;1.00
20963;DHT22;10640;50.140;8.138;2022-08-19T16:05:58;27.20;1.00
20963;DHT22;10640;50.140;8.138;2022-08-19T16:08:42;27.30;1.00
20963;DHT22;10640;50.140;8.138;2022-08-19T16:11:10;27.50;1.00
20963;DHT22;10640;50.140;8.138;2022-08-19T16:13:38;27.20;1.00
20963;DHT22;10640;50.140;8.138;2022-08-19T16:16:05;27.20;1.00
20963;DHT22;10640;50.140;8.138;2022-08-19T16:18:34;27.60;1.00
20963;DHT22;10640;50.140;8.138;2022-08-19T16:21:03;27.50;1.00
20963;DHT22;10640;50.140;8.138;2022-08-19T16:23:31;27.50;1.00
20963;DHT22;10640;50.140;8.138;2022-08-19T16:25:58;27.40;1.00
20963;DHT22;10640;50.140;8.138;2022-08-19T16:28:25;27.10;1.00
20963;DHT22;10640;50.140;8.138;2022-08-19T16:30:52;27.20;1.00
20963;DHT22;10640;50.140;8.138;2022-08-19T16:33:19;27.30;1.00
20963;DHT22;10640;50.140;8.138;2022-08-19T16:35:47;27.20;1.00
20963;DHT22;10640;50.140;8.138;2022-08-19T16:38:14;27.00;1.00
20963;DHT22;10640;50.140;8.138;2022-08-19T16:40:41;27.40;1.00
20963;DHT22;10640;50.140;8.138;2022-08-19T16:43:08;27.80;1.00